Aviation Digital Data Service (ADDS)

Output produced by METARs form (2339 UTC 25 February 2018)
found at http://www.aviationweather.gov/adds/metars/
 
SLCO 252200Z 00000KT 999015 BKN070 26/23Q1008
TAF SLCO 252230Z 2600/2624 00000KT 9999 FEW015 BKN070 TX28/2620Z TN21 /2610Z 
     TEMPO 2603/2606 13010KT 8000 TSRA FEW017CB 
     BECMG 2612/2614 30008KT SCT017 FEW020CB SCT070 
     TEMPO 2618/2622 8000 TSRA
       
SLCB 252300Z 11009KT 9999 FEW030 SCT200 21/08 Q1022
TAF SLCB 252230Z 2600/2624 13010KT 9999 FEW027 SCT070 TX25/2619Z TN13/2610Z 
     BECMG 2602/2604 00000KT FEW025 BKN070 
     BECMG 2612/2614 FEW027 SCT070 
     BECMG 2616/2618 25010KT FEW030 BKN070 
     PROB30 
     TEMPO 2620 /2622 6000 SHRA FEW033CB
       
SLLP 252300Z 11008KT 9999 FEW015 10/02 Q1034
TAF SLLP 252230Z 2600/2624 07005KT 9999 FEW015 FEW017CB TX16/2620Z TN04/2610Z 
     BECMG 2603/2605 3000E VCFG FEW002 SCT012 
     BECMG 2611/2613 12007KT 9999 NSW SCT015 
     TEMPO 2618/2622 04012KT 8000 VCSH SCT017 FEW020CB
       
SLOR 252300Z 04014KT 9999 FEW015 FEW017CB 15/04 Q1031
SLPS 252300Z 00000KT 9999 FEW015 FEW025CB BKN070 BKN200 26/25 Q1008
TAF SLPS 252230Z 2600/2624 00000KT 9999 NSC TX36/2620Z TN22/2610Z 
     BECMG 2614/2616 15006KT SCT023 
     BECMG 2621/2623 00000KT NSC
       
SLRI 252300Z 36006KT 3000 -RA BKN005 FEW020CB OVC070 23/23 Q1008
SLSA 252300Z 18004KT 9999 FEW017 FEW023CB SCT080 28/23 Q1007
SLET 252300Z 00000KT 9999 FEW023 31/18 Q1009
TAF SLET 252230Z 2600/2624 VRB02KT 9999 NSC TX34/2620Z TN22/2611Z 
     TEMPO 2608/2611 18005KT BKN010 
     BECMG 2615/2617 SCT020 
     BECMG 2621/2624 VRB02KT NSC
       
SLVR 252300Z VRB02KT 9000 FEW023 SCT200 29/18 Q1009
TAF SLVR 252230Z 2600/2624 VRB02KT 9999 NSC TX34/2620Z TN22/2611Z 
     TEMPO 2608/2611 18005KT BKN010 
     BECMG 2615/2617 SCT020 
     BECMG 2621/2624 VRB02KT NSC
       
SLTJ 252300Z 23004KT 9999 FEW005 BKN023 FEW030CB OVC070 15/12 Q1021
TAF SLTJ 252230Z 2600/2624 00000KT 9999 BKN023 OVC070 TX19/2619Z TN14/2610Z 
     BECMG 2602/2604 00000KT 6000 RA SCT013 BKN020 OVC070 
     BECMG 2607/2609 9999 NSW 
     BECMG 2613/2615 BKN025 OVC070
       
SLTR 252300Z 32003KT 9999 FEW017 FEW020CB BKN200 28/24 Q1008
TAF SLTR 252230Z 2600/2624 00000KT 9999 SCT015 SCT070 TX32/2620Z TN23 /2610Z 
     BECMG 2612/2614 13008KT SCT015 FEW017CB SCT070 
     TEMPO 2618/2621 8000 VCSH
       
SLYA 252300Z 00000KT 9999 SCT023 OVC070 24/22 Q1014